createdAt,value
2018-09-11T00:00:56.017Z,18.71
2018-09-11T00:03:24.389Z,18.71
2018-09-11T00:05:52.780Z,18.70
2018-09-11T00:08:21.136Z,18.69
2018-09-11T00:10:49.534Z,18.69
2018-09-11T00:13:17.899Z,18.69
2018-09-11T00:15:46.294Z,18.70
2018-09-11T00:18:14.667Z,18.69
2018-09-11T00:20:43.054Z,18.69
2018-09-11T00:23:11.445Z,18.67
2018-09-11T00:25:39.829Z,18.68
2018-09-11T00:28:08.315Z,18.66
2018-09-11T00:30:36.705Z,18.64
2018-09-11T00:33:05.074Z,18.62
2018-09-11T00:35:33.467Z,18.61
2018-09-11T00:38:01.845Z,18.59
2018-09-11T00:40:30.260Z,18.58
2018-09-11T00:42:58.635Z,18.57
2018-09-11T00:45:27.033Z,18.54
2018-09-11T00:47:55.397Z,18.53
2018-09-11T00:50:23.764Z,18.51
2018-09-11T00:52:52.162Z,18.49
2018-09-11T00:55:20.525Z,18.48
2018-09-11T00:57:48.927Z,18.49
2018-09-11T01:00:17.323Z,18.49
2018-09-11T01:02:45.767Z,18.50
2018-09-11T01:05:14.129Z,18.51
2018-09-11T01:07:42.530Z,18.50
2018-09-11T01:10:11.453Z,18.50
2018-09-11T01:12:39.848Z,18.50
2018-09-11T01:15:09.214Z,18.48
2018-09-11T01:17:37.819Z,18.47
2018-09-11T01:20:06.782Z,18.45
2018-09-11T01:22:35.193Z,18.42
2018-09-11T01:25:03.553Z,18.39
2018-09-11T01:27:31.955Z,18.38
2018-09-11T01:30:00.323Z,18.35
2018-09-11T01:32:28.709Z,18.35
2018-09-11T01:34:57.078Z,18.34
2018-09-11T01:37:25.466Z,18.32
2018-09-11T01:39:53.839Z,18.31
2018-09-11T01:42:22.231Z,18.30
2018-09-11T01:44:50.596Z,18.29
2018-09-11T01:47:18.987Z,18.27
2018-09-11T01:49:47.347Z,18.26
2018-09-11T01:52:15.738Z,18.25
2018-09-11T01:54:44.112Z,18.24
2018-09-11T01:57:12.506Z,18.24
2018-09-11T01:59:40.874Z,18.23
2018-09-11T02:02:09.262Z,18.22
2018-09-11T02:04:37.630Z,18.22
2018-09-11T02:07:06.026Z,18.21
2018-09-11T02:09:34.398Z,18.22
2018-09-11T02:12:02.796Z,18.20
2018-09-11T02:14:31.170Z,18.19
2018-09-11T02:16:59.566Z,18.19
2018-09-11T02:19:27.934Z,18.17
2018-09-11T02:21:56.346Z,18.17
2018-09-11T02:24:24.709Z,18.15
2018-09-11T02:26:53.099Z,18.14
2018-09-11T02:29:21.470Z,18.12
2018-09-11T02:31:49.870Z,18.08
2018-09-11T02:34:18.238Z,18.09
2018-09-11T02:36:46.622Z,18.08
2018-09-11T02:39:15.002Z,18.04
2018-09-11T02:41:43.383Z,18.03
2018-09-11T02:44:12.097Z,18.01
2018-09-11T02:46:40.583Z,17.99
2018-09-11T02:49:08.980Z,17.97
2018-09-11T02:51:37.362Z,17.98
2018-09-11T02:54:05.759Z,17.97
2018-09-11T02:56:34.132Z,17.97
2018-09-11T02:59:02.531Z,17.96
2018-09-11T03:01:30.899Z,17.95
2018-09-11T03:03:59.293Z,17.92
2018-09-11T03:06:29.384Z,17.92
2018-09-11T03:08:57.774Z,17.91
2018-09-11T03:11:26.138Z,17.90
2018-09-11T03:13:54.532Z,17.92
2018-09-11T03:16:22.898Z,17.94
2018-09-11T03:18:51.366Z,17.94
2018-09-11T03:21:19.710Z,17.95
2018-09-11T03:23:48.138Z,17.96
2018-09-11T03:26:16.494Z,17.97
2018-09-11T03:28:44.889Z,17.98
2018-09-11T03:31:13.257Z,17.99
2018-09-11T03:33:41.651Z,17.99
2018-09-11T03:36:10.028Z,18.00
2018-09-11T03:38:38.424Z,18.00
2018-09-11T03:41:06.997Z,18.01
2018-09-11T03:43:35.391Z,18.01
2018-09-11T03:46:03.762Z,18.01
2018-09-11T03:48:32.166Z,18.01
2018-09-11T03:51:00.542Z,18.00
2018-09-11T03:53:28.931Z,18.01
2018-09-11T03:55:57.294Z,18.02
2018-09-11T03:58:25.716Z,18.02
2018-09-11T04:00:54.090Z,18.02
2018-09-11T04:03:22.483Z,18.04
2018-09-11T04:05:50.858Z,18.02
2018-09-11T04:08:19.243Z,18.02
2018-09-11T04:10:47.615Z,18.01
2018-09-11T04:13:16.009Z,18.01
2018-09-11T04:15:44.379Z,17.99
2018-09-11T04:18:12.863Z,17.99
2018-09-11T04:20:41.242Z,17.98
2018-09-11T04:23:09.674Z,17.96
2018-09-11T04:25:38.093Z,17.94
2018-09-11T04:28:06.478Z,17.94
2018-09-11T04:30:35.003Z,17.92
2018-09-11T04:33:03.823Z,17.92
2018-09-11T04:35:32.206Z,17.91
2018-09-11T04:38:00.657Z,17.90
2018-09-11T04:40:29.070Z,17.88
2018-09-11T04:42:57.491Z,17.87
2018-09-11T04:45:25.863Z,17.86
2018-09-11T04:47:54.226Z,17.84
2018-09-11T04:50:22.611Z,17.84
2018-09-11T04:52:50.983Z,17.83
2018-09-11T04:55:19.383Z,17.82
2018-09-11T04:57:47.758Z,17.81
2018-09-11T05:00:16.150Z,17.80
2018-09-11T05:02:44.517Z,17.81
2018-09-11T05:05:12.912Z,17.80
2018-09-11T05:07:41.311Z,17.79
2018-09-11T05:10:09.718Z,17.79
2018-09-11T05:12:38.091Z,17.78
2018-09-11T05:15:06.492Z,17.78
2018-09-11T05:17:35.053Z,17.76
2018-09-11T05:20:03.456Z,17.75
2018-09-11T05:22:31.862Z,17.74
2018-09-11T05:25:00.250Z,17.74
2018-09-11T05:27:28.675Z,17.75
2018-09-11T05:29:57.091Z,17.76
2018-09-11T05:32:25.456Z,17.76
2018-09-11T05:34:53.842Z,17.73
2018-09-11T05:37:22.220Z,17.74
2018-09-11T05:39:50.614Z,17.74
2018-09-11T05:42:19.095Z,17.73
2018-09-11T05:44:47.523Z,17.74
2018-09-11T05:47:15.969Z,17.73
2018-09-11T05:49:44.309Z,17.74
2018-09-11T05:52:12.703Z,17.75
2018-09-11T05:54:41.102Z,17.73
2018-09-11T05:57:09.462Z,17.72
2018-09-11T05:59:37.850Z,17.71
2018-09-11T06:02:07.002Z,17.69
2018-09-11T06:04:35.390Z,17.68
2018-09-11T06:07:03.919Z,17.66
2018-09-11T06:09:32.309Z,17.65
2018-09-11T06:12:00.682Z,17.63
2018-09-11T06:14:29.074Z,17.65
2018-09-11T06:16:57.445Z,17.65
2018-09-11T06:19:25.857Z,17.68
2018-09-11T06:21:54.251Z,17.70
2018-09-11T06:24:22.638Z,17.70
2018-09-11T06:26:51.010Z,17.73
2018-09-11T06:29:19.478Z,17.76
2018-09-11T06:31:47.799Z,17.78
2018-09-11T06:34:16.194Z,17.79
2018-09-11T06:36:44.563Z,17.80
2018-09-11T06:39:12.964Z,17.81
2018-09-11T06:41:41.349Z,17.85
2018-09-11T06:44:09.756Z,17.87
2018-09-11T06:46:38.130Z,17.88
2018-09-11T06:49:06.498Z,17.89
2018-09-11T06:51:34.903Z,17.89
2018-09-11T06:54:03.299Z,17.88
2018-09-11T06:56:31.702Z,17.88
2018-09-11T06:59:00.218Z,17.87
2018-09-11T07:01:28.602Z,17.87
2018-09-11T07:03:56.973Z,17.85
2018-09-11T07:06:25.366Z,17.83
2018-09-11T07:08:53.738Z,17.82
2018-09-11T07:11:22.129Z,17.80
2018-09-11T07:13:50.494Z,17.81
2018-09-11T07:16:18.891Z,17.84
2018-09-11T07:18:47.266Z,17.86
2018-09-11T07:21:15.690Z,17.87
2018-09-11T07:23:44.057Z,17.88
2018-09-11T07:26:12.584Z,17.87
2018-09-11T07:28:40.931Z,17.87
2018-09-11T07:31:09.323Z,17.87
2018-09-11T07:33:37.695Z,17.89
2018-09-11T07:36:06.085Z,17.90
2018-09-11T07:38:34.458Z,17.91
2018-09-11T07:41:02.854Z,17.92
2018-09-11T07:43:31.235Z,17.94
2018-09-11T07:45:59.626Z,17.96
2018-09-11T07:48:28.002Z,17.97
2018-09-11T07:50:56.448Z,17.97
2018-09-11T07:53:24.821Z,17.97
2018-09-11T07:55:53.219Z,18.00
2018-09-11T07:58:21.627Z,18.03
2018-09-11T08:00:50.170Z,18.06
2018-09-11T08:03:18.538Z,18.11
2018-09-11T08:05:46.934Z,18.19
2018-09-11T08:08:15.339Z,18.27
2018-09-11T08:10:43.717Z,18.36
2018-09-11T08:13:12.090Z,18.47
2018-09-11T08:15:40.484Z,18.56
2018-09-11T08:18:08.862Z,18.65
2018-09-11T08:20:37.259Z,18.74
2018-09-11T08:23:05.767Z,18.81
2018-09-11T08:25:34.158Z,18.86
2018-09-11T08:28:02.559Z,18.89
2018-09-11T08:30:32.503Z,18.90
2018-09-11T08:33:01.886Z,18.91
2018-09-11T08:35:30.451Z,18.90
2018-09-11T08:37:58.946Z,18.88
2018-09-11T08:40:27.338Z,18.85
2018-09-11T08:42:55.711Z,18.80
2018-09-11T08:45:24.174Z,18.78
2018-09-11T08:47:52.542Z,18.79
2018-09-11T08:50:20.911Z,18.84
2018-09-11T08:52:49.328Z,18.92
2018-09-11T08:55:17.695Z,18.98
2018-09-11T08:57:46.096Z,19.11
2018-09-11T09:00:14.462Z,19.20
2018-09-11T09:02:42.870Z,19.31
2018-09-11T09:05:11.246Z,19.43
2018-09-11T09:07:39.690Z,19.54
2018-09-11T09:10:08.131Z,19.67
2018-09-11T09:12:36.556Z,19.80
2018-09-11T09:15:04.937Z,19.90
2018-09-11T09:17:33.340Z,19.99
2018-09-11T09:20:01.706Z,20.07
2018-09-11T09:22:30.115Z,20.11
2018-09-11T09:24:58.486Z,20.11
2018-09-11T09:27:26.923Z,20.14
2018-09-11T09:29:55.298Z,20.22
2018-09-11T09:32:23.698Z,20.33
2018-09-11T09:34:52.074Z,20.56
2018-09-11T09:37:20.482Z,20.77
2018-09-11T09:39:48.857Z,20.92
2018-09-11T09:42:17.264Z,21.08
2018-09-11T09:44:45.646Z,21.21
2018-09-11T09:47:14.067Z,21.30
2018-09-11T09:49:42.670Z,21.41
2018-09-11T09:52:11.062Z,21.44
2018-09-11T09:54:39.437Z,21.50
2018-09-11T09:57:07.828Z,21.56
2018-09-11T09:59:36.194Z,21.63
2018-09-11T10:02:08.788Z,21.70
2018-09-11T10:04:37.170Z,21.74
2018-09-11T10:07:05.579Z,21.81
2018-09-11T10:09:33.947Z,21.82
2018-09-11T10:12:02.342Z,21.82
2018-09-11T10:14:30.715Z,21.86
2018-09-11T10:16:59.112Z,21.94
2018-09-11T10:19:27.490Z,22.04
2018-09-11T10:21:55.913Z,22.14
2018-09-11T10:24:24.295Z,22.30
2018-09-11T10:26:52.685Z,22.44
2018-09-11T10:29:21.056Z,22.54
2018-09-11T10:31:49.447Z,22.67
2018-09-11T10:34:17.828Z,22.78
2018-09-11T10:36:46.223Z,22.91
2018-09-11T10:39:14.624Z,23.03
2018-09-11T10:41:43.038Z,23.18
2018-09-11T10:44:11.443Z,23.29
2018-09-11T10:46:39.810Z,23.43
2018-09-11T10:49:08.207Z,23.53
2018-09-11T10:51:36.575Z,23.55
2018-09-11T10:54:04.975Z,23.71
2018-09-11T10:56:33.339Z,23.80
2018-09-11T10:59:01.737Z,23.85
2018-09-11T11:01:30.119Z,23.87
2018-09-11T11:03:58.546Z,23.90
2018-09-11T11:06:26.918Z,23.98
2018-09-11T11:08:55.319Z,24.08
2018-09-11T11:11:23.702Z,24.11
2018-09-11T11:13:52.095Z,24.08
2018-09-11T11:16:20.495Z,24.01
2018-09-11T11:18:48.897Z,23.92
2018-09-11T11:21:17.630Z,23.83
2018-09-11T11:23:46.162Z,23.76
2018-09-11T11:26:14.534Z,23.69
2018-09-11T11:28:42.974Z,23.62
2018-09-11T11:31:11.355Z,23.60
2018-09-11T11:33:39.747Z,23.64
2018-09-11T11:36:08.191Z,23.74
2018-09-11T11:38:36.539Z,23.84
2018-09-11T11:41:04.908Z,23.92
2018-09-11T11:43:33.303Z,24.02
2018-09-11T11:46:01.671Z,24.13
2018-09-11T11:48:30.070Z,24.20
2018-09-11T11:50:58.430Z,24.27
2018-09-11T11:53:26.830Z,24.29
2018-09-11T11:55:55.255Z,24.27
2018-09-11T11:58:23.654Z,24.31
2018-09-11T12:00:52.081Z,24.36
2018-09-11T12:03:20.474Z,24.41
2018-09-11T12:05:48.838Z,24.47
2018-09-11T12:08:17.231Z,24.55
2018-09-11T12:10:45.639Z,24.61
2018-09-11T12:13:14.033Z,24.72
2018-09-11T12:15:42.407Z,24.82
2018-09-11T12:18:10.810Z,24.92
2018-09-11T12:20:39.182Z,24.99
2018-09-11T12:23:07.607Z,25.06
2018-09-11T12:25:36.130Z,25.14
2018-09-11T12:28:04.398Z,25.22
2018-09-11T12:30:32.771Z,25.29
2018-09-11T12:33:01.366Z,25.31
2018-09-11T12:35:29.742Z,25.34
2018-09-11T12:37:58.126Z,25.38
2018-09-11T12:40:26.519Z,25.46
2018-09-11T12:42:54.935Z,25.55
2018-09-11T12:45:23.307Z,25.62
2018-09-11T12:47:52.144Z,25.75
2018-09-11T12:50:20.107Z,25.88
2018-09-11T12:52:48.510Z,26.01
2018-09-11T12:55:16.910Z,26.13
2018-09-11T12:57:45.299Z,26.20
2018-09-11T13:00:13.703Z,26.22
2018-09-11T13:02:42.065Z,26.22
2018-09-11T13:05:10.462Z,26.23
2018-09-11T13:07:39.691Z,26.25
2018-09-11T13:10:08.107Z,26.25
2018-09-11T13:12:36.479Z,26.25
2018-09-11T13:15:05.484Z,26.26
2018-09-11T13:17:33.785Z,26.34
2018-09-11T13:20:02.181Z,26.45
2018-09-11T13:22:30.574Z,26.44
2018-09-11T13:24:58.998Z,26.64
2018-09-11T13:27:27.370Z,26.66
2018-09-11T13:29:55.762Z,26.71
2018-09-11T13:32:24.147Z,26.78
2018-09-11T13:34:52.550Z,26.77
2018-09-11T13:37:20.911Z,26.83
2018-09-11T13:39:49.311Z,26.92
2018-09-11T13:42:17.679Z,27.01
2018-09-11T13:44:46.070Z,27.12
2018-09-11T13:47:14.561Z,27.22
2018-09-11T13:49:42.859Z,27.34
2018-09-11T13:52:11.235Z,27.41
2018-09-11T13:54:39.626Z,27.45
2018-09-11T13:57:07.998Z,27.47
2018-09-11T13:59:36.484Z,27.43
2018-09-11T14:02:05.052Z,27.40
2018-09-11T14:04:33.442Z,27.35
2018-09-11T14:07:01.814Z,27.36
2018-09-11T14:09:30.212Z,27.33
2018-09-11T14:11:58.586Z,27.25
2018-09-11T14:14:26.995Z,27.19
2018-09-11T14:16:55.373Z,27.17
2018-09-11T14:19:23.770Z,27.18
2018-09-11T14:21:52.167Z,27.15
2018-09-11T14:24:20.562Z,27.10
2018-09-11T14:26:49.019Z,27.03
2018-09-11T14:29:17.414Z,26.98
2018-09-11T14:31:45.885Z,26.91
2018-09-11T14:34:14.367Z,26.89
2018-09-11T14:36:42.755Z,26.84
2018-09-11T14:39:11.993Z,27.03
2018-09-11T14:41:40.642Z,27.03
2018-09-11T14:44:09.051Z,27.00
2018-09-11T14:46:37.577Z,26.96
2018-09-11T14:49:06.223Z,26.97
2018-09-11T14:51:34.640Z,26.99
2018-09-11T14:54:03.041Z,26.98
2018-09-11T14:56:31.438Z,26.96
2018-09-11T14:58:59.826Z,26.91
2018-09-11T15:01:28.243Z,26.86
2018-09-11T15:03:56.727Z,26.80
2018-09-11T15:06:25.116Z,26.74
2018-09-11T15:08:53.638Z,26.69
2018-09-11T15:11:22.066Z,26.62
2018-09-11T15:13:50.551Z,26.59
2018-09-11T15:16:18.950Z,26.55
2018-09-11T15:18:47.363Z,26.54
2018-09-11T15:21:15.781Z,26.52
2018-09-11T15:23:44.154Z,26.52
2018-09-11T15:26:12.546Z,26.51
2018-09-11T15:28:40.918Z,26.48
2018-09-11T15:31:09.318Z,26.48
2018-09-11T15:33:37.741Z,26.48
2018-09-11T15:36:06.183Z,26.49
2018-09-11T15:38:34.577Z,26.49
2018-09-11T15:41:02.979Z,26.49
2018-09-11T15:43:31.356Z,26.47
2018-09-11T15:45:59.876Z,26.46
2018-09-11T15:48:28.242Z,26.47
2018-09-11T15:50:56.640Z,26.48
2018-09-11T15:53:25.009Z,26.54
2018-09-11T15:55:53.542Z,26.58
2018-09-11T15:58:21.886Z,26.60
2018-09-11T16:00:50.279Z,26.59
2018-09-11T16:03:18.654Z,26.58
2018-09-11T16:05:47.042Z,26.59
2018-09-11T16:08:15.406Z,26.60
2018-09-11T16:10:43.794Z,26.62
2018-09-11T16:13:12.162Z,26.64
2018-09-11T16:15:40.562Z,26.64
2018-09-11T16:18:08.942Z,26.65
2018-09-11T16:20:37.343Z,26.64
2018-09-11T16:23:05.881Z,26.61
2018-09-11T16:25:34.280Z,26.56
2018-09-11T16:28:02.652Z,26.51
2018-09-11T16:30:31.053Z,26.45
2018-09-11T16:32:59.424Z,26.38
2018-09-11T16:35:27.814Z,26.29
2018-09-11T16:37:56.187Z,26.21
2018-09-11T16:40:24.583Z,26.15
2018-09-11T16:42:53.170Z,26.08
2018-09-11T16:45:21.622Z,26.01
2018-09-11T16:47:49.998Z,25.96
2018-09-11T16:50:18.366Z,25.90
2018-09-11T16:52:46.863Z,25.85
2018-09-11T16:55:15.238Z,25.80
2018-09-11T16:57:43.638Z,25.77
2018-09-11T17:00:12.014Z,25.73
2018-09-11T17:02:40.446Z,25.70
2018-09-11T17:05:08.838Z,25.67
2018-09-11T17:07:37.287Z,25.64
2018-09-11T17:10:05.899Z,25.61
2018-09-11T17:12:34.299Z,25.57
2018-09-11T17:15:02.820Z,25.53
2018-09-11T17:17:31.234Z,25.51
2018-09-11T17:19:59.606Z,25.47
2018-09-11T17:22:28.027Z,25.44
2018-09-11T17:24:56.502Z,25.42
2018-09-11T17:27:24.894Z,25.38
2018-09-11T17:29:53.266Z,25.35
2018-09-11T17:32:21.668Z,25.33
2018-09-11T17:34:50.207Z,25.31
2018-09-11T17:37:18.751Z,25.26
2018-09-11T17:39:47.132Z,25.25
2018-09-11T17:42:15.540Z,25.22
2018-09-11T17:44:43.907Z,25.21
2018-09-11T17:47:12.306Z,25.18
2018-09-11T17:49:40.682Z,25.15
2018-09-11T17:52:09.088Z,25.13
2018-09-11T17:54:37.465Z,25.11
2018-09-11T17:57:05.955Z,25.08
2018-09-11T17:59:34.335Z,25.06
2018-09-11T18:02:02.752Z,25.04
2018-09-11T18:04:31.148Z,25.01
2018-09-11T18:06:59.546Z,25.00
2018-09-11T18:09:27.924Z,24.99
2018-09-11T18:11:56.328Z,24.97
2018-09-11T18:14:24.694Z,24.94
2018-09-11T18:16:53.108Z,24.92
2018-09-11T18:19:21.475Z,24.89
2018-09-11T18:21:49.887Z,24.90
2018-09-11T18:24:18.255Z,24.88
2018-09-11T18:26:46.651Z,24.86
2018-09-11T18:29:15.030Z,24.86
2018-09-11T18:31:43.431Z,24.82
2018-09-11T18:34:11.798Z,24.78
2018-09-11T18:36:40.228Z,24.75
2018-09-11T18:39:09.601Z,24.73
2018-09-11T18:41:38.023Z,24.70
2018-09-11T18:44:06.520Z,24.67
2018-09-11T18:46:34.931Z,24.65
2018-09-11T18:49:03.518Z,24.63
2018-09-11T18:51:31.938Z,24.62
2018-09-11T18:54:00.310Z,24.61
2018-09-11T18:56:28.678Z,24.57
2018-09-11T18:58:57.071Z,24.54
2018-09-11T19:01:25.438Z,24.52
2018-09-11T19:03:53.831Z,24.49
2018-09-11T19:06:22.198Z,24.46
2018-09-11T19:08:50.586Z,24.41
2018-09-11T19:11:18.964Z,24.36
2018-09-11T19:13:47.363Z,24.30
2018-09-11T19:16:15.755Z,24.26
2018-09-11T19:18:44.151Z,24.21
2018-09-11T19:21:12.554Z,24.16
2018-09-11T19:23:40.943Z,24.13
2018-09-11T19:26:09.315Z,24.08
2018-09-11T19:28:37.721Z,24.03
2018-09-11T19:31:06.237Z,23.99
2018-09-11T19:33:34.626Z,23.97
2018-09-11T19:36:03.007Z,23.93
2018-09-11T19:38:31.423Z,23.89
2018-09-11T19:40:59.794Z,23.86
2018-09-11T19:43:28.191Z,23.82
2018-09-11T19:45:56.563Z,23.75
2018-09-11T19:48:24.963Z,23.66
2018-09-11T19:50:53.335Z,23.57
2018-09-11T19:53:21.731Z,23.48
2018-09-11T19:55:50.107Z,23.42
2018-09-11T19:58:18.575Z,23.36
2018-09-11T20:00:47.022Z,23.28
2018-09-11T20:03:15.418Z,23.25
2018-09-11T20:05:43.786Z,23.20
2018-09-11T20:08:12.185Z,23.16
2018-09-11T20:10:40.558Z,23.12
2018-09-11T20:13:08.958Z,23.07
2018-09-11T20:15:37.326Z,23.02
2018-09-11T20:18:05.754Z,22.99
2018-09-11T20:20:34.199Z,22.95
2018-09-11T20:23:02.674Z,22.90
2018-09-11T20:25:31.084Z,22.84
2018-09-11T20:27:59.462Z,22.80
2018-09-11T20:30:27.839Z,22.75
2018-09-11T20:32:56.239Z,22.71
2018-09-11T20:35:24.712Z,22.69
2018-09-11T20:37:53.102Z,22.67
2018-09-11T20:40:21.470Z,22.64
2018-09-11T20:42:49.891Z,22.61
2018-09-11T20:45:18.264Z,22.60
2018-09-11T20:47:46.638Z,22.57
2018-09-11T20:50:15.039Z,22.54
2018-09-11T20:52:43.414Z,22.51
2018-09-11T20:55:11.848Z,22.50
2018-09-11T20:57:40.217Z,22.47
2018-09-11T21:00:08.630Z,22.44
2018-09-11T21:02:37.002Z,22.40
2018-09-11T21:05:05.402Z,22.38
2018-09-11T21:07:33.775Z,22.35
2018-09-11T21:10:02.172Z,22.35
2018-09-11T21:12:30.551Z,22.33
2018-09-11T21:14:58.960Z,22.31
2018-09-11T21:17:27.334Z,22.30
2018-09-11T21:19:55.731Z,22.28
2018-09-11T21:22:24.162Z,22.27
2018-09-11T21:24:52.573Z,22.26
2018-09-11T21:27:20.985Z,22.25
2018-09-11T21:29:49.379Z,22.24
2018-09-11T21:32:17.759Z,22.24
2018-09-11T21:34:46.154Z,22.24
2018-09-11T21:37:14.530Z,22.21
2018-09-11T21:39:42.926Z,22.20
2018-09-11T21:42:11.299Z,22.17
2018-09-11T21:44:39.694Z,22.16
2018-09-11T21:47:08.070Z,22.15
2018-09-11T21:49:36.470Z,22.15
2018-09-11T21:52:04.897Z,22.14
2018-09-11T21:54:33.272Z,22.14
2018-09-11T21:57:01.646Z,22.14
2018-09-11T21:59:30.042Z,22.15
2018-09-11T22:02:01.757Z,22.15
2018-09-11T22:04:30.210Z,22.14
2018-09-11T22:06:58.626Z,22.14
2018-09-11T22:09:27.026Z,22.14
2018-09-11T22:11:55.467Z,22.12
2018-09-11T22:14:23.840Z,22.11
2018-09-11T22:16:52.213Z,22.10
2018-09-11T22:19:20.632Z,22.10
2018-09-11T22:21:49.043Z,22.09
2018-09-11T22:24:17.443Z,22.08
2018-09-11T22:26:45.818Z,22.07
2018-09-11T22:29:14.210Z,22.06
2018-09-11T22:31:42.586Z,22.05
2018-09-11T22:34:10.984Z,22.02
2018-09-11T22:36:39.367Z,22.00
2018-09-11T22:39:08.427Z,21.98
2018-09-11T22:41:36.825Z,21.95
2018-09-11T22:44:05.238Z,21.93
2018-09-11T22:46:33.625Z,21.91
2018-09-11T22:49:02.038Z,21.88
2018-09-11T22:51:30.423Z,21.87
2018-09-11T22:53:58.793Z,21.85
2018-09-11T22:56:27.190Z,21.84
2018-09-11T22:58:55.567Z,21.83
2018-09-11T23:01:23.966Z,21.82
2018-09-11T23:03:52.343Z,21.82
2018-09-11T23:06:20.911Z,21.82
2018-09-11T23:08:49.294Z,21.83
2018-09-11T23:11:17.695Z,21.83
2018-09-11T23:13:46.072Z,21.84
2018-09-11T23:16:14.470Z,21.83
2018-09-11T23:18:42.850Z,21.82
2018-09-11T23:21:11.253Z,21.82
2018-09-11T23:23:39.646Z,21.83
2018-09-11T23:26:08.178Z,21.82
2018-09-11T23:28:36.562Z,21.82
2018-09-11T23:31:04.964Z,21.81
2018-09-11T23:33:33.339Z,21.81
2018-09-11T23:36:01.749Z,21.80
2018-09-11T23:38:30.135Z,21.81
2018-09-11T23:40:58.534Z,21.80
2018-09-11T23:43:26.930Z,21.81
2018-09-11T23:45:55.332Z,21.81
2018-09-11T23:48:23.711Z,21.81
2018-09-11T23:50:52.111Z,21.80
2018-09-11T23:53:20.482Z,21.81
2018-09-11T23:55:48.887Z,21.81
2018-09-11T23:58:17.265Z,21.81
